• Join FlightAware (Why Join?)
  • Login
  • US Flag 
06:16AM EDT


 

Airport Tracker/Info


-or-


 

Live Flight TrackerFlight Track Log ✈ SWA3497 ✈ 25-Apr-2013 ✈ KMDW - KSDF

Flight Track Log - Related Links

Times and Time Zones

All times are in EDT time to prevent confusion due to time zone crossing. See the SWA3497 flight status page for this flight to view local times or setup timezone preferences in your user account.

Time Position Orientation Groundspeed Altitude Reporting Facility
EDT Latitude Longitude Course Direction KTS MPH feet Rate Location/Type
12:31PM 41.7833 -87.8000 173° South 180 207 2,400  Level Chicago TRACON
12:34PM 41.6469 -87.9128 212° Southwest 265 305 6,900 2,100 Climbing Chicago Center
12:35PM 41.5703 -87.8917 168° South 291 335 10,100 3,240 Climbing Chicago Center
12:36PM 41.4994 -87.8111 140° Southeast 332 382 13,600 3,660 Climbing Chicago Center
12:37PM 41.0538 -87.6954 173° South  Level FlightAware Approximate
12:37PM 41.4100 -87.7767 164° South 334 384 17,700  Level Chicago Center
12:38PM 41.3153 -87.7533 170° South 340 391 20,800 1,560 Climbing Chicago Center
12:39PM 41.1986 -87.7214 168° South 352 405 21,000 720 Climbing Chicago Center
12:40PM 41.0997 -87.6942 168° South 360 414 22,300 960 Climbing Chicago Center
12:41PM 40.9936 -87.6633 168° South 383 441 23,000 300 Climbing Chicago Center
12:42PM 40.8789 -87.6297 168° South 417 480 23,000  Level Chicago Center
12:43PM 40.7664 -87.5978 168° South 417 480 23,000  Level Chicago Center
12:44PM 40.6542 -87.5658 168° South 415 478 23,000  Level Chicago Center
12:45PM 40.5194 -87.5289 168° South 414 476 23,000  Level Chicago Center
12:46PM 40.4067 -87.4972 168° South 416 479 23,000  Level Chicago Center
12:47PM 40.2933 -87.4661 168° South 417 480 23,000  Level Chicago Center
12:48PM 40.1689 -87.4342 169° South 420 483 23,000  Level Chicago Center
12:49PM 40.0900 -87.4136 169° South 420 483 23,000  Level Indianapolis Center
12:50PM 39.9758 -87.3814 168° South 420 483 23,000  Level Indianapolis Center
12:51PM 39.8597 -87.3494 168° South 423 487 23,000  Level Indianapolis Center
12:52PM 39.7247 -87.3131 168° South 424 488 23,000  Level Indianapolis Center
12:53PM 39.6119 -87.2661 162° South 427 491 23,000  Level Indianapolis Center
12:54PM 39.5144 -87.1606 140° Southeast 455 524 23,000  Level Indianapolis Center
12:55PM 39.4169 -87.0564 140° Southeast 455 524 23,000  Level Indianapolis Center
12:56PM 39.3203 -86.9514 140° Southeast 453 521 23,000 -240 Level Indianapolis Center
12:57PM 39.2233 -86.8464 140° Southeast 454 522 22,600 -1,080 Descending Indianapolis Center
12:58PM 39.1175 -86.7319 140° Southeast 445 512 20,800 -1,860 Descending Indianapolis Center
12:59PM 39.0261 -86.6342 140° Southeast 428 493 18,800 -2,040 Descending Indianapolis Center
01:00PM 38.9361 -86.5383 140° Southeast 406 467 16,600 -2,040 Descending Indianapolis Center
01:01PM 38.8544 -86.4517 140° Southeast 398 458 14,600 -2,040 Descending Indianapolis Center
01:02PM 38.7731 -86.3636 140° Southeast 386 444 12,500 -1,800 Descending Indianapolis Center
01:04PM 38.6947 -86.2800 140° Southeast 371 427 11,000 -1,440 Descending Indianapolis Center
01:05PM 38.6256 -86.1650 128° Southeast 340 391 9,600 -1,320 Descending Indianapolis Center
01:05PM 38.5936 -86.1086 126° Southeast 317 365 8,800 -1,260 Descending FAA TRACON SMA TRACON (SMA)
01:06PM 38.5783 -86.0803 125° Southeast 314 361 8,400 -1,500 Descending FAA TRACON SMA TRACON (SMA)
01:06PM 38.5594 -86.0450 124° Southeast 312 359 7,800 -1,620 Descending FAA TRACON SMA TRACON (SMA)
01:06PM 38.5444 -86.0181 125° Southeast 307 353 7,300 -1,440 Descending FAA TRACON SMA TRACON (SMA)
01:07PM 38.5297 -85.9906 124° Southeast 307 353 6,900 -1,500 Descending FAA TRACON SMA TRACON (SMA)
01:07PM 38.5108 -85.9572 126° Southeast 302 348 6,300 -1,500 Descending FAA TRACON SMA TRACON (SMA)
01:07PM 38.4964 -85.9297 124° Southeast 301 346 5,900 -1,200 Descending FAA TRACON SMA TRACON (SMA)
01:08PM 38.4783 -85.8961 124° Southeast 300 345 5,500 -900 Descending FAA TRACON SMA TRACON (SMA)
01:08PM 38.4644 -85.8703 124° Southeast 293 337 5,300 -660 Descending FAA TRACON SMA TRACON (SMA)
01:08PM 38.4508 -85.8447 124° Southeast 284 327 5,100 -600 Descending FAA TRACON SMA TRACON (SMA)
01:09PM 38.4333 -85.8189 131° Southeast 263 303 4,900 -300 Descending FAA TRACON SMA TRACON (SMA)
01:09PM 38.4158 -85.8094 157° South 236 272 4,900 -480 Level FAA TRACON SMA TRACON (SMA)
01:09PM 38.3983 -85.8036 165° South 213 245 4,600 -720 Descending FAA TRACON SMA TRACON (SMA)
01:10PM 38.3814 -85.7981 166° South 204 235 4,400 -1,080 Descending FAA TRACON SMA TRACON (SMA)
01:11PM 38.3253 -85.7786 165° South 189 217 3,200 -1,140 Descending FAA TRACON SMA TRACON (SMA)
01:11PM 38.3108 -85.7736 165° South 180 207 3,000 -780 Descending FAA TRACON SMA TRACON (SMA)
01:11PM 38.2969 -85.7689 165° South 167 192 2,700 -900 Descending FAA TRACON SMA TRACON (SMA)
01:12PM 38.2847 -85.7644 164° South 153 176 2,400 -960 Descending FAA TRACON SMA TRACON (SMA)
01:12PM 38.2708 -85.7594 164° South 138 159 2,100 -780 Descending FAA TRACON SMA TRACON (SMA)
01:12PM 38.2594 -85.7556 165° South 135 155 1,900 -600 Descending FAA TRACON SMA TRACON (SMA)
01:13PM 38.2478 -85.7517 165° South 138 159 1,700 -780 Descending FAA TRACON SMA TRACON (SMA)
01:13PM 38.2339 -85.7475 167° South 133 153 1,400 -780 Descending FAA TRACON SMA TRACON (SMA)
01:13PM 38.2236 -85.7442 166° South 128 147 1,200 -660 Descending FAA TRACON SMA TRACON (SMA)
01:14PM 38.2103 -85.7392 164° South 128 147 1,000 -660 Descending FAA TRACON SMA TRACON (SMA)
01:14PM 38.2000 -85.7358 166° South 125 144 800 -660 Descending FAA TRACON SMA TRACON (SMA)
01:14PM 38.1919 -85.7331 165° South 127 146 600 -600 Descending FAA TRACON SMA TRACON (SMA)
01:16PM 38.1667 -85.7333 169° South  Level FlightAware Approximate